createdAt,value
2022-08-12T00:02:24.858Z,15.06
2022-08-12T00:06:04.280Z,14.96
2022-08-12T00:09:26.670Z,14.96
2022-08-12T00:12:47.106Z,15.11
2022-08-12T00:16:09.071Z,15.13
2022-08-12T00:19:29.501Z,15.01
2022-08-12T00:22:58.692Z,15.02
2022-08-12T00:26:22.562Z,14.91
2022-08-12T00:29:47.808Z,14.75
2022-08-12T00:33:08.801Z,14.66
2022-08-12T00:36:34.939Z,14.61
2022-08-12T00:39:57.277Z,14.59
2022-08-12T00:42:59.818Z,14.57
2022-08-12T00:46:20.352Z,14.63
2022-08-12T00:49:24.164Z,14.65
2022-08-12T00:52:26.147Z,14.74
2022-08-12T00:55:28.018Z,14.69
2022-08-12T00:58:30.884Z,14.63
2022-08-12T01:02:11.472Z,14.47
2022-08-12T01:05:20.890Z,14.49
2022-08-12T01:08:41.292Z,14.51
2022-08-12T01:11:43.143Z,14.48
2022-08-12T01:14:47.022Z,14.52
2022-08-12T01:17:49.095Z,14.53
2022-08-12T01:21:09.249Z,14.47
2022-08-12T01:24:31.287Z,14.40
2022-08-12T01:27:34.930Z,14.48
2022-08-12T01:30:36.923Z,14.49
2022-08-12T01:34:03.087Z,14.39
2022-08-12T01:37:07.751Z,14.43
2022-08-12T01:40:35.889Z,14.46
2022-08-12T01:43:34.253Z,14.45
2022-08-12T01:46:42.817Z,14.37
2022-08-12T01:50:13.599Z,14.29
2022-08-12T01:53:20.785Z,14.33
2022-08-12T01:56:25.169Z,14.29
2022-08-12T01:59:59.849Z,14.27
2022-08-12T02:03:17.293Z,14.32
2022-08-12T02:06:41.642Z,14.19
2022-08-12T02:10:50.289Z,14.24
2022-08-12T02:13:48.839Z,14.13
2022-08-12T02:16:59.432Z,14.19
2022-08-12T02:20:08.173Z,14.23
2022-08-12T02:23:11.348Z,14.29
2022-08-12T02:26:16.041Z,14.21
2022-08-12T02:29:19.114Z,14.35
2022-08-12T02:32:21.275Z,14.36
2022-08-12T02:35:26.629Z,14.33
2022-08-12T02:38:28.926Z,14.33
2022-08-12T02:41:32.758Z,14.27
2022-08-12T02:44:38.313Z,14.19
2022-08-12T02:47:59.580Z,14.19
2022-08-12T02:51:06.650Z,14.04
2022-08-12T02:54:13.432Z,13.94
2022-08-12T02:57:20.748Z,13.90
2022-08-12T03:00:23.277Z,13.85
2022-08-12T03:03:27.919Z,13.81
2022-08-12T03:06:38.045Z,13.80
2022-08-12T03:10:04.032Z,13.79
2022-08-12T03:13:08.908Z,13.84
2022-08-12T03:16:10.873Z,13.81
2022-08-12T03:19:12.693Z,13.76
2022-08-12T03:22:15.627Z,13.82
2022-08-12T03:25:26.623Z,13.66
2022-08-12T03:28:49.221Z,13.62
2022-08-12T03:31:54.092Z,13.61
2022-08-12T03:34:57.373Z,13.59
2022-08-12T03:38:02.137Z,13.52
2022-08-12T03:41:34.225Z,13.51
2022-08-12T03:45:01.353Z,13.57
2022-08-12T03:48:30.882Z,13.62
2022-08-12T03:51:50.879Z,13.69
2022-08-12T03:55:11.841Z,13.84
2022-08-12T03:58:32.628Z,13.81
2022-08-12T04:01:40.645Z,13.80
2022-08-12T04:04:45.709Z,13.95
2022-08-12T04:07:58.117Z,13.86
2022-08-12T04:16:51.831Z,13.78
2022-08-12T04:20:43.610Z,13.92
2022-08-12T04:23:48.506Z,14.03
2022-08-12T04:26:50.839Z,14.99
2022-08-12T04:30:29.338Z,17.84
2022-08-12T04:33:15.062Z,20.15
2022-08-12T04:36:17.018Z,20.71
2022-08-12T04:39:19.059Z,21.49
2022-08-12T04:42:21.438Z,23.00
2022-08-12T04:45:23.253Z,23.02
2022-08-12T04:48:25.109Z,20.49
2022-08-12T04:51:28.432Z,19.39
2022-08-12T04:54:31.318Z,18.06
2022-08-12T04:57:33.100Z,17.82
2022-08-12T05:00:35.813Z,17.19
2022-08-12T05:03:46.045Z,17.12
2022-08-12T05:06:48.815Z,16.72
2022-08-12T05:10:00.138Z,16.74
2022-08-12T05:13:08.128Z,16.72
2022-08-12T05:16:10.189Z,16.48
2022-08-12T05:19:18.638Z,16.59
2022-08-12T05:22:26.181Z,16.70
2022-08-12T05:25:28.189Z,16.75
2022-08-12T05:37:05.257Z,16.90
2022-08-12T05:40:11.276Z,17.15
2022-08-12T05:43:13.549Z,17.28
2022-08-12T05:46:15.690Z,17.16
2022-08-12T05:49:17.629Z,17.27
2022-08-12T05:52:19.531Z,17.44
2022-08-12T05:55:26.939Z,17.64
2022-08-12T05:58:39.935Z,17.70
2022-08-12T06:02:11.458Z,17.94
2022-08-12T06:05:07.684Z,17.88
2022-08-12T06:08:09.642Z,18.15
2022-08-12T06:11:11.399Z,18.02
2022-08-12T06:14:13.795Z,18.00
2022-08-12T06:17:18.767Z,18.20
2022-08-12T06:20:26.481Z,18.30
2022-08-12T06:23:31.764Z,18.44
2022-08-12T06:26:34.604Z,18.80
2022-08-12T06:30:10.071Z,18.83
2022-08-12T06:33:04.162Z,19.12
2022-08-12T06:36:22.776Z,19.13
2022-08-12T06:39:24.910Z,19.30
2022-08-12T06:42:45.205Z,19.76
2022-08-12T06:45:49.323Z,19.90
2022-08-12T06:48:55.741Z,19.94
2022-08-12T06:51:57.630Z,20.25
2022-08-12T06:55:00.075Z,20.54
2022-08-12T06:58:07.594Z,20.45
2022-08-12T07:01:12.521Z,20.70
2022-08-12T07:04:35.789Z,20.73
2022-08-12T07:07:39.180Z,20.83
2022-08-12T07:10:53.588Z,21.06
2022-08-12T07:14:11.153Z,21.22
2022-08-12T07:17:14.994Z,21.12
2022-08-12T07:20:42.634Z,21.32
2022-08-12T07:23:41.763Z,21.55
2022-08-12T07:26:47.133Z,21.49
2022-08-12T07:29:57.958Z,21.47
2022-08-12T07:33:13.221Z,21.73
2022-08-12T07:36:15.485Z,21.68
2022-08-12T07:39:17.662Z,21.97
2022-08-12T07:42:20.711Z,22.49
2022-08-12T07:45:22.808Z,22.43
2022-08-12T07:48:25.122Z,22.50
2022-08-12T07:51:28.432Z,22.34
2022-08-12T07:54:30.473Z,22.31
2022-08-12T07:58:26.229Z,22.74
2022-08-12T08:01:54.170Z,22.62
2022-08-12T08:04:56.220Z,22.61
2022-08-12T08:11:46.425Z,23.08
2022-08-12T08:14:50.236Z,23.05
2022-08-12T08:18:04.340Z,23.30
2022-08-12T08:21:06.704Z,23.72
2022-08-12T08:24:16.296Z,23.69
2022-08-12T08:27:18.144Z,23.81
2022-08-12T08:30:20.037Z,23.82
2022-08-12T08:33:23.729Z,23.82
2022-08-12T08:36:45.366Z,24.09
2022-08-12T08:39:47.425Z,24.50
2022-08-12T08:42:51.393Z,24.33
2022-08-12T08:45:55.927Z,24.50
2022-08-12T08:48:59.802Z,24.51
2022-08-12T08:52:04.121Z,24.77
2022-08-12T08:55:06.513Z,24.95
2022-08-12T08:58:09.325Z,25.00
2022-08-12T09:01:11.330Z,24.89
2022-08-12T09:05:14.488Z,25.31
2022-08-12T09:07:58.318Z,25.69
2022-08-12T09:12:11.626Z,26.05
2022-08-12T09:14:52.280Z,25.96
2022-08-12T09:17:57.073Z,25.46
2022-08-12T09:20:59.116Z,25.91
2022-08-12T09:24:06.015Z,26.57
2022-08-12T09:27:16.117Z,26.99
2022-08-12T09:30:18.482Z,26.27
2022-08-12T09:34:28.217Z,26.51
2022-08-12T09:37:19.899Z,26.63
2022-08-12T09:41:01.505Z,26.47
2022-08-12T09:44:06.831Z,26.30
2022-08-12T09:47:29.599Z,27.06
2022-08-12T09:50:36.923Z,27.31
2022-08-12T09:53:40.139Z,26.65
2022-08-12T09:57:02.706Z,26.76
2022-08-12T10:00:16.222Z,27.00
2022-08-12T10:03:32.108Z,27.41
2022-08-12T10:06:36.321Z,27.97
2022-08-12T10:09:57.488Z,27.82
2022-08-12T10:13:34.397Z,27.18
2022-08-12T10:16:44.137Z,27.67
2022-08-12T10:19:52.246Z,28.06
2022-08-12T10:22:58.779Z,28.45
2022-08-12T10:26:36.911Z,28.16
2022-08-12T10:30:11.907Z,28.64
2022-08-12T10:33:18.340Z,28.99
2022-08-12T10:36:21.354Z,29.10
2022-08-12T10:40:01.577Z,29.52
2022-08-12T10:43:20.815Z,29.50
2022-08-12T10:46:24.175Z,29.26
2022-08-12T10:50:05.049Z,29.10
2022-08-12T10:52:56.658Z,29.25
2022-08-12T10:55:59.458Z,27.97
2022-08-12T10:59:05.376Z,28.14
2022-08-12T11:04:27.371Z,29.16
2022-08-12T11:07:06.416Z,29.63
2022-08-12T11:08:57.298Z,29.31
2022-08-12T11:12:34.605Z,28.81
2022-08-12T11:16:04.210Z,29.93
2022-08-12T11:18:55.346Z,29.19
2022-08-12T11:22:01.398Z,28.56
2022-08-12T11:25:10.243Z,28.64
2022-08-12T11:28:14.277Z,28.62
2022-08-12T11:31:16.519Z,29.14
2022-08-12T11:34:53.140Z,28.70
2022-08-12T11:37:58.084Z,29.16
2022-08-12T11:41:05.179Z,28.86
2022-08-12T11:44:33.374Z,29.45
2022-08-12T11:47:29.140Z,29.72
2022-08-12T11:50:32.757Z,29.28
2022-08-12T11:53:57.475Z,29.85
2022-08-12T11:57:02.189Z,28.96
2022-08-12T12:03:44.024Z,28.07
2022-08-12T12:06:52.977Z,28.01
2022-08-12T12:09:55.868Z,28.13
2022-08-12T12:13:00.766Z,27.85
2022-08-12T12:16:10.051Z,28.79
2022-08-12T12:19:12.453Z,28.55
2022-08-12T12:22:15.793Z,29.28
2022-08-12T12:26:06.978Z,29.20
2022-08-12T12:28:54.360Z,29.51
2022-08-12T12:32:10.312Z,30.35
2022-08-12T12:36:06.220Z,30.85
2022-08-12T12:38:39.035Z,30.38
2022-08-12T12:42:45.490Z,29.52
2022-08-12T12:45:19.029Z,28.86
2022-08-12T12:48:28.274Z,28.82
2022-08-12T12:51:48.728Z,29.46
2022-08-12T12:54:56.010Z,30.06
2022-08-12T12:58:00.930Z,30.62
2022-08-12T13:01:26.548Z,31.13
2022-08-12T13:04:30.308Z,31.22
2022-08-12T13:07:49.426Z,31.49
2022-08-12T13:11:08.288Z,31.60
2022-08-12T13:14:28.128Z,31.92
2022-08-12T13:18:02.201Z,32.14
2022-08-12T13:20:59.538Z,31.91
2022-08-12T13:24:09.690Z,31.61
2022-08-12T13:27:12.569Z,31.31
2022-08-12T13:30:23.832Z,31.15
2022-08-12T13:34:32.656Z,30.71
2022-08-12T13:37:08.990Z,31.02
2022-08-12T13:40:12.885Z,31.24
2022-08-12T13:43:40.645Z,31.26
2022-08-12T13:48:11.690Z,31.90
2022-08-12T13:51:24.510Z,32.67
2022-08-12T13:55:06.525Z,33.02
2022-08-12T13:58:37.751Z,32.07
2022-08-12T14:01:53.180Z,31.65
2022-08-12T14:05:31.077Z,30.67
2022-08-12T14:08:35.592Z,30.75
2022-08-12T14:11:38.988Z,29.87
2022-08-12T14:14:49.947Z,29.25
2022-08-12T14:17:52.353Z,29.06
2022-08-12T14:21:02.185Z,28.82
2022-08-12T14:24:11.218Z,28.03
2022-08-12T14:27:14.020Z,27.75
2022-08-12T14:30:37.430Z,27.70
2022-08-12T14:33:50.266Z,28.35
2022-08-12T14:36:57.800Z,29.06
2022-08-12T14:40:01.261Z,28.86
2022-08-12T14:43:06.315Z,29.00
2022-08-12T14:46:19.305Z,29.23
2022-08-12T14:50:00.986Z,29.34
2022-08-12T14:55:13.870Z,29.78
2022-08-12T14:59:57.829Z,30.10
2022-08-12T15:03:04.114Z,29.73
2022-08-12T15:06:43.818Z,29.59
2022-08-12T15:09:32.640Z,29.72
2022-08-12T15:12:35.344Z,29.76
2022-08-12T15:15:46.032Z,29.93
2022-08-12T15:18:55.324Z,29.89
2022-08-12T15:22:35.489Z,29.86
2022-08-12T15:25:28.721Z,29.90
2022-08-12T15:28:33.825Z,29.84
2022-08-12T15:31:54.268Z,30.02
2022-08-12T15:35:01.208Z,30.64
2022-08-12T15:38:12.952Z,30.93
2022-08-12T15:41:17.719Z,30.02
2022-08-12T15:44:37.906Z,29.81
2022-08-12T15:47:48.310Z,29.94
2022-08-12T15:50:55.753Z,30.61
2022-08-12T15:54:33.667Z,30.34
2022-08-12T15:57:33.528Z,30.00
2022-08-12T16:00:44.712Z,29.81
2022-08-12T16:04:00.466Z,29.74
2022-08-12T16:07:06.123Z,29.53
2022-08-12T16:10:11.969Z,29.02
2022-08-12T16:13:25.271Z,28.83
2022-08-12T16:16:37.011Z,28.90
2022-08-12T16:20:03.272Z,28.80
2022-08-12T16:23:26.584Z,28.47
2022-08-12T16:26:35.022Z,28.82
2022-08-12T16:29:52.392Z,28.85
2022-08-12T16:32:57.591Z,28.16
2022-08-12T16:36:01.880Z,28.36
2022-08-12T16:39:04.824Z,28.60
2022-08-12T16:42:07.092Z,28.23
2022-08-12T16:45:14.054Z,27.97
2022-08-12T16:48:35.427Z,27.90
2022-08-12T16:51:40.548Z,27.95
2022-08-12T16:54:44.810Z,27.94
2022-08-12T16:57:49.046Z,27.76
2022-08-12T17:00:51.999Z,27.37
2022-08-12T17:04:09.061Z,26.94
2022-08-12T17:07:17.048Z,27.06
2022-08-12T17:10:36.317Z,27.14
2022-08-12T17:13:53.273Z,27.25
2022-08-12T17:16:56.011Z,26.66
2022-08-12T17:20:35.157Z,26.71
2022-08-12T17:23:48.517Z,26.50
2022-08-12T17:26:56.374Z,26.19
2022-08-12T17:30:04.967Z,26.02
2022-08-12T17:33:08.543Z,25.81
2022-08-12T17:36:10.961Z,25.65
2022-08-12T17:39:13.045Z,25.52
2022-08-12T17:42:33.010Z,25.34
2022-08-12T17:45:42.968Z,25.06
2022-08-12T17:48:57.738Z,24.94
2022-08-12T17:52:02.593Z,24.77
2022-08-12T17:55:20.098Z,24.66
2022-08-12T17:58:38.250Z,24.58
2022-08-12T18:01:46.152Z,24.43
2022-08-12T18:05:09.797Z,24.25
2022-08-12T18:08:15.870Z,24.35
2022-08-12T18:11:55.030Z,24.21
2022-08-12T18:15:08.792Z,24.03
2022-08-12T18:18:19.668Z,23.92
2022-08-12T18:22:01.831Z,23.85
2022-08-12T18:25:04.986Z,23.80
2022-08-12T18:28:16.947Z,23.57
2022-08-12T18:31:44.167Z,23.64
2022-08-12T18:34:56.319Z,23.41
2022-08-12T18:38:09.465Z,23.27
2022-08-12T18:41:34.407Z,23.30
2022-08-12T18:44:40.273Z,23.14
2022-08-12T18:47:50.161Z,23.10
2022-08-12T18:51:11.325Z,22.80
2022-08-12T18:54:29.209Z,22.79
2022-08-12T18:58:06.405Z,22.71
2022-08-12T19:00:56.870Z,22.62
2022-08-12T19:04:12.472Z,22.54
2022-08-12T19:07:22.648Z,22.40
2022-08-12T19:10:24.858Z,22.44
2022-08-12T19:13:46.185Z,22.33
2022-08-12T19:16:51.679Z,22.24
2022-08-12T19:19:55.429Z,22.29
2022-08-12T19:23:08.339Z,22.12
2022-08-12T19:26:32.499Z,22.00
2022-08-12T19:30:06.101Z,22.02
2022-08-12T19:33:20.093Z,22.00
2022-08-12T19:40:09.895Z,21.91
2022-08-12T19:43:19.904Z,21.82
2022-08-12T19:46:27.993Z,22.00
2022-08-12T19:49:37.470Z,21.83
2022-08-12T19:52:41.450Z,21.73
2022-08-12T19:55:43.921Z,21.60
2022-08-12T19:58:54.818Z,21.67
2022-08-12T20:02:02.244Z,21.71
2022-08-12T20:06:06.790Z,21.63
2022-08-12T20:08:33.217Z,21.50
2022-08-12T20:12:14.725Z,21.27
2022-08-12T20:15:05.198Z,21.27
2022-08-12T20:18:08.754Z,21.09
2022-08-12T20:21:40.483Z,21.30
2022-08-12T20:24:44.862Z,21.26
2022-08-12T20:28:05.585Z,21.15
2022-08-12T20:31:08.629Z,21.00
2022-08-12T20:34:12.629Z,21.11
2022-08-12T20:37:15.039Z,20.98
2022-08-12T20:40:17.986Z,20.87
2022-08-12T20:43:28.113Z,20.85
2022-08-12T20:46:33.780Z,20.75
2022-08-12T20:49:39.976Z,20.73
2022-08-12T20:52:45.226Z,20.63
2022-08-12T20:55:56.773Z,20.56
2022-08-12T20:59:01.407Z,20.47
2022-08-12T21:02:04.773Z,20.21
2022-08-12T21:06:09.578Z,19.91
2022-08-12T21:08:48.793Z,19.93
2022-08-12T21:11:51.372Z,19.68
2022-08-12T21:15:00.787Z,19.67
2022-08-12T21:18:29.057Z,19.58
2022-08-12T21:21:46.807Z,19.53
2022-08-12T21:24:53.094Z,19.37
2022-08-12T21:27:58.763Z,19.28
2022-08-12T21:32:34.458Z,19.17
2022-08-12T21:34:29.101Z,19.37
2022-08-12T21:37:37.468Z,19.46
2022-08-12T21:40:52.699Z,19.34
2022-08-12T21:44:01.026Z,19.28
2022-08-12T21:47:12.063Z,19.25
2022-08-12T21:50:29.094Z,19.17
2022-08-12T21:54:07.218Z,19.12
2022-08-12T21:56:53.965Z,19.10
2022-08-12T21:59:56.337Z,18.99
2022-08-12T22:03:17.574Z,18.88
2022-08-12T22:06:43.919Z,18.75
2022-08-12T22:09:46.721Z,18.71
2022-08-12T22:13:01.044Z,18.68
2022-08-12T22:16:03.464Z,18.60
2022-08-12T22:19:06.481Z,18.57
2022-08-12T22:22:08.509Z,18.64
2022-08-12T22:25:14.453Z,18.69
2022-08-12T22:28:39.146Z,18.67
2022-08-12T22:31:41.319Z,18.67
2022-08-12T22:34:44.753Z,18.64
2022-08-12T22:37:46.812Z,18.64
2022-08-12T22:40:51.031Z,18.71
2022-08-12T22:44:11.594Z,18.68
2022-08-12T22:47:53.953Z,18.65
2022-08-12T22:50:59.358Z,18.55
2022-08-12T22:54:01.805Z,18.66
2022-08-12T22:57:12.405Z,18.66
2022-08-12T23:00:24.011Z,18.68
2022-08-12T23:03:48.859Z,18.67
2022-08-12T23:06:54.322Z,18.55
2022-08-12T23:09:56.140Z,18.40
2022-08-12T23:13:16.860Z,18.22
2022-08-12T23:16:33.176Z,18.17
2022-08-12T23:19:38.254Z,18.17
2022-08-12T23:22:40.424Z,18.09
2022-08-12T23:25:54.375Z,18.16
2022-08-12T23:29:29.732Z,18.09
2022-08-12T23:32:37.801Z,18.18
2022-08-12T23:35:53.873Z,18.20
2022-08-12T23:39:03.972Z,18.11
2022-08-12T23:42:16.855Z,18.05
2022-08-12T23:45:31.187Z,18.02
2022-08-12T23:48:34.779Z,17.91
2022-08-12T23:51:36.907Z,17.93
2022-08-12T23:54:44.952Z,17.95
2022-08-12T23:57:51.061Z,17.84
